sensor_id;sensor_type;location;lat;lon;timestamp;pressure;altitude;pressure_sealevel;temperature;humidity
50484;BME280;36409;52.168;20.878;2023-01-10T00:00:25;99528.36;;;5.42;84.52
50484;BME280;36409;52.168;20.878;2023-01-10T00:03:17;99527.48;;;5.41;84.35
50484;BME280;36409;52.168;20.878;2023-01-10T00:05:47;99528.36;;;5.42;84.06
50484;BME280;36409;52.168;20.878;2023-01-10T00:08:17;99528.36;;;5.42;84.03
50484;BME280;36409;52.168;20.878;2023-01-10T00:10:56;99530.06;;;5.41;84.07
50484;BME280;36409;52.168;20.878;2023-01-10T00:13:27;99536.98;;;5.41;84.04
50484;BME280;36409;52.168;20.878;2023-01-10T00:16:06;99542.19;;;5.39;84.33
50484;BME280;36409;52.168;20.878;2023-01-10T00:18:37;99544.76;;;5.38;84.06
50484;BME280;36409;52.168;20.878;2023-01-10T00:21:06;99549.95;;;5.36;84.38
50484;BME280;36409;52.168;20.878;2023-01-10T00:23:36;99559.44;;;5.37;84.45
50484;BME280;36409;52.168;20.878;2023-01-10T00:26:06;99566.33;;;5.37;84.20
50484;BME280;36409;52.168;20.878;2023-01-10T00:28:35;99560.31;;;5.36;84.23
50484;BME280;36409;52.168;20.878;2023-01-10T00:31:07;99575.84;;;5.36;84.58
50484;BME280;36409;52.168;20.878;2023-01-10T00:33:39;99574.96;;;5.36;84.04
50484;BME280;36409;52.168;20.878;2023-01-10T00:36:10;99569.80;;;5.34;84.01
50484;BME280;36409;52.168;20.878;2023-01-10T00:38:39;99572.39;;;5.34;83.96
50484;BME280;36409;52.168;20.878;2023-01-10T00:41:08;99574.98;;;5.34;84.14
50484;BME280;36409;52.168;20.878;2023-01-10T00:44:11;99575.84;;;5.33;84.31
50484;BME280;36409;52.168;20.878;2023-01-10T00:46:41;99585.35;;;5.33;84.34
50484;BME280;36409;52.168;20.878;2023-01-10T00:49:10;99584.48;;;5.34;84.02
50484;BME280;36409;52.168;20.878;2023-01-10T00:51:43;99594.82;;;5.35;84.24
50484;BME280;36409;52.168;20.878;2023-01-10T00:54:13;99595.69;;;5.34;84.16
50484;BME280;36409;52.168;20.878;2023-01-10T00:56:44;99596.55;;;5.33;84.03
50484;BME280;36409;52.168;20.878;2023-01-10T00:59:13;99603.45;;;5.34;84.23
50484;BME280;36409;52.168;20.878;2023-01-10T01:01:42;99606.88;;;5.35;84.24
50484;BME280;36409;52.168;20.878;2023-01-10T01:04:12;99606.89;;;5.36;84.27
50484;BME280;36409;52.168;20.878;2023-01-10T01:06:43;99609.48;;;5.36;84.54
50484;BME280;36409;52.168;20.878;2023-01-10T01:09:14;99606.89;;;5.36;84.44
50484;BME280;36409;52.168;20.878;2023-01-10T01:11:45;99613.78;;;5.36;84.50
50484;BME280;36409;52.168;20.878;2023-01-10T01:14:16;99613.78;;;5.36;84.18
50484;BME280;36409;52.168;20.878;2023-01-10T01:16:47;99611.19;;;5.36;84.29
50484;BME280;36409;52.168;20.878;2023-01-10T01:19:21;99614.66;;;5.36;84.28
50484;BME280;36409;52.168;20.878;2023-01-10T01:21:51;99618.95;;;5.36;84.49
50484;BME280;36409;52.168;20.878;2023-01-10T01:24:21;99616.38;;;5.37;84.32
50484;BME280;36409;52.168;20.878;2023-01-10T01:26:54;99617.23;;;5.38;83.87
50484;BME280;36409;52.168;20.878;2023-01-10T01:29:23;99628.45;;;5.38;83.97
50484;BME280;36409;52.168;20.878;2023-01-10T01:32:03;99634.50;;;5.37;84.35
50484;BME280;36409;52.168;20.878;2023-01-10T01:34:33;99631.89;;;5.39;84.53
50484;BME280;36409;52.168;20.878;2023-01-10T01:37:02;99630.19;;;5.39;84.27
50484;BME280;36409;52.168;20.878;2023-01-10T01:39:31;99639.64;;;5.40;84.10
50484;BME280;36409;52.168;20.878;2023-01-10T01:42:00;99648.27;;;5.43;84.50
50484;BME280;36409;52.168;20.878;2023-01-10T01:44:31;99648.27;;;5.43;84.38
50484;BME280;36409;52.168;20.878;2023-01-10T01:47:05;99644.81;;;5.44;83.94
50484;BME280;36409;52.168;20.878;2023-01-10T01:49:39;99650.84;;;5.46;84.32
50484;BME280;36409;52.168;20.878;2023-01-10T01:52:14;99649.11;;;5.46;84.47
50484;BME280;36409;52.168;20.878;2023-01-10T01:54:47;99648.28;;;5.44;84.17
50484;BME280;36409;52.168;20.878;2023-01-10T01:57:18;99648.28;;;5.44;84.39
50484;BME280;36409;52.168;20.878;2023-01-10T01:59:54;99643.97;;;5.43;84.57
50484;BME280;36409;52.168;20.878;2023-01-10T02:02:30;99644.81;;;5.44;84.31
50484;BME280;36409;52.168;20.878;2023-01-10T02:05:03;99651.73;;;5.43;84.28
50484;BME280;36409;52.168;20.878;2023-01-10T02:07:35;99661.20;;;5.43;84.06
50484;BME280;36409;52.168;20.878;2023-01-10T02:10:10;99665.53;;;5.42;84.32
50484;BME280;36409;52.168;20.878;2023-01-10T02:12:41;99667.25;;;5.41;84.24
50484;BME280;36409;52.168;20.878;2023-01-10T02:15:12;99672.42;;;5.41;84.42
50484;BME280;36409;52.168;20.878;2023-01-10T02:17:49;99665.52;;;5.44;84.26
50484;BME280;36409;52.168;20.878;2023-01-10T02:20:24;99669.84;;;5.43;84.43
50484;BME280;36409;52.168;20.878;2023-01-10T02:23:26;99667.25;;;5.41;84.41
50484;BME280;36409;52.168;20.878;2023-01-10T02:26:16;99670.70;;;5.40;84.09
50484;BME280;36409;52.168;20.878;2023-01-10T02:29:23;99677.62;;;5.40;84.28
50484;BME280;36409;52.168;20.878;2023-01-10T02:32:18;99680.20;;;5.37;84.28
50484;BME280;36409;52.168;20.878;2023-01-10T02:35:22;99680.23;;;5.35;84.08
50484;BME280;36409;52.168;20.878;2023-01-10T02:38:03;99686.27;;;5.34;84.26
50484;BME280;36409;52.168;20.878;2023-01-10T02:40:42;99684.53;;;5.35;84.29
50484;BME280;36409;52.168;20.878;2023-01-10T02:43:19;99673.33;;;5.34;84.45
50484;BME280;36409;52.168;20.878;2023-01-10T02:45:56;99686.27;;;5.34;84.42
50484;BME280;36409;52.168;20.878;2023-01-10T02:48:30;99684.55;;;5.33;84.38
50484;BME280;36409;52.168;20.878;2023-01-10T02:51:03;99683.70;;;5.33;84.34
50484;BME280;36409;52.168;20.878;2023-01-10T02:53:38;99687.14;;;5.32;84.50
50484;BME280;36409;52.168;20.878;2023-01-10T02:59:44;99683.68;;;5.31;84.63
50484;BME280;36409;52.168;20.878;2023-01-10T03:02:27;99688.86;;;5.31;84.37
50484;BME280;36409;52.168;20.878;2023-01-10T03:05:04;99682.83;;;5.31;84.35
50484;BME280;36409;52.168;20.878;2023-01-10T03:07:41;99691.45;;;5.31;84.18
50484;BME280;36409;52.168;20.878;2023-01-10T03:10:17;99695.79;;;5.29;84.21
50484;BME280;36409;52.168;20.878;2023-01-10T03:12:56;99690.60;;;5.28;84.40
50484;BME280;36409;52.168;20.878;2023-01-10T03:15:32;99688.02;;;5.28;84.24
50484;BME280;36409;52.168;20.878;2023-01-10T03:18:08;99702.69;;;5.27;84.32
50484;BME280;36409;52.168;20.878;2023-01-10T03:20:42;99693.20;;;5.26;84.32
50484;BME280;36409;52.168;20.878;2023-01-10T03:23:14;99691.47;;;5.26;84.53
50484;BME280;36409;52.168;20.878;2023-01-10T03:25:45;99693.20;;;5.26;84.74
50484;BME280;36409;52.168;20.878;2023-01-10T03:28:18;99697.52;;;5.24;84.40
50484;BME280;36409;52.168;20.878;2023-01-10T03:30:56;99708.73;;;5.23;84.34
50484;BME280;36409;52.168;20.878;2023-01-10T03:33:32;99702.69;;;5.21;84.42
50484;BME280;36409;52.168;20.878;2023-01-10T03:36:10;99712.18;;;5.19;84.31
50484;BME280;36409;52.168;20.878;2023-01-10T03:38:48;99711.31;;;5.20;84.16
50484;BME280;36409;52.168;20.878;2023-01-10T03:41:33;99712.18;;;5.19;84.35
50484;BME280;36409;52.168;20.878;2023-01-10T03:44:14;99712.18;;;5.19;84.26
50484;BME280;36409;52.168;20.878;2023-01-10T03:47:06;99717.38;;;5.17;84.28
50484;BME280;36409;52.168;20.878;2023-01-10T03:49:40;99722.56;;;5.16;84.41
50484;BME280;36409;52.168;20.878;2023-01-10T03:52:13;99716.51;;;5.15;84.26
50484;BME280;36409;52.168;20.878;2023-01-10T03:54:44;99721.70;;;5.14;84.52
50484;BME280;36409;52.168;20.878;2023-01-10T03:57:19;99726.87;;;5.14;84.43
50484;BME280;36409;52.168;20.878;2023-01-10T03:59:55;99732.91;;;5.13;84.76
50484;BME280;36409;52.168;20.878;2023-01-10T04:02:28;99732.05;;;5.10;84.26
50484;BME280;36409;52.168;20.878;2023-01-10T04:04:58;99739.80;;;5.10;84.33
50484;BME280;36409;52.168;20.878;2023-01-10T04:07:28;99745.84;;;5.09;84.36
50484;BME280;36409;52.168;20.878;2023-01-10T04:09:57;99752.75;;;5.09;84.32
50484;BME280;36409;52.168;20.878;2023-01-10T04:12:26;99752.73;;;5.07;84.30
50484;BME280;36409;52.168;20.878;2023-01-10T04:14:57;99757.91;;;5.07;84.32
50484;BME280;36409;52.168;20.878;2023-01-10T04:17:31;99758.80;;;5.06;84.75
50484;BME280;36409;52.168;20.878;2023-01-10T04:20:00;99767.41;;;5.07;84.40
50484;BME280;36409;52.168;20.878;2023-01-10T04:22:30;99769.16;;;5.06;84.69
50484;BME280;36409;52.168;20.878;2023-01-10T04:24:59;99768.27;;;5.06;84.49
50484;BME280;36409;52.168;20.878;2023-01-10T04:27:28;99773.45;;;5.06;84.44
50484;BME280;36409;52.168;20.878;2023-01-10T04:29:57;99779.48;;;5.05;84.75
50484;BME280;36409;52.168;20.878;2023-01-10T04:32:27;99781.22;;;5.04;84.54
50484;BME280;36409;52.168;20.878;2023-01-10T04:34:57;99784.67;;;5.03;84.37
50484;BME280;36409;52.168;20.878;2023-01-10T04:37:27;99790.70;;;5.02;84.53
50484;BME280;36409;52.168;20.878;2023-01-10T04:39:56;99797.58;;;5.02;84.37
50484;BME280;36409;52.168;20.878;2023-01-10T04:42:27;99801.90;;;5.03;84.50
50484;BME280;36409;52.168;20.878;2023-01-10T04:44:59;99810.52;;;5.02;84.68
50484;BME280;36409;52.168;20.878;2023-01-10T04:47:33;99810.52;;;5.02;84.48
50484;BME280;36409;52.168;20.878;2023-01-10T04:50:04;99812.25;;;5.01;84.58
50484;BME280;36409;52.168;20.878;2023-01-10T04:52:34;99830.35;;;5.03;84.69
50484;BME280;36409;52.168;20.878;2023-01-10T04:55:03;99841.58;;;5.03;84.54
50484;BME280;36409;52.168;20.878;2023-01-10T04:57:32;99841.58;;;5.03;84.63
50484;BME280;36409;52.168;20.878;2023-01-10T05:00:02;99853.66;;;5.04;84.54
50484;BME280;36409;52.168;20.878;2023-01-10T05:02:32;99851.06;;;5.06;84.56
50484;BME280;36409;52.168;20.878;2023-01-10T05:05:01;99854.52;;;5.06;84.66
50484;BME280;36409;52.168;20.878;2023-01-10T05:07:30;99860.53;;;5.08;84.75
50484;BME280;36409;52.168;20.878;2023-01-10T05:09:59;99867.44;;;5.09;84.46
50484;BME280;36409;52.168;20.878;2023-01-10T05:12:28;99863.13;;;5.08;84.34
50484;BME280;36409;52.168;20.878;2023-01-10T05:14:58;99863.99;;;5.10;84.42
50484;BME280;36409;52.168;20.878;2023-01-10T05:17:30;99870.91;;;5.10;84.70
50484;BME280;36409;52.168;20.878;2023-01-10T05:19:59;99880.39;;;5.11;84.60
50484;BME280;36409;52.168;20.878;2023-01-10T05:22:30;99885.55;;;5.13;84.63
50484;BME280;36409;52.168;20.878;2023-01-10T05:24:59;99888.14;;;5.13;84.66
50484;BME280;36409;52.168;20.878;2023-01-10T05:27:31;99878.64;;;5.13;84.45
50484;BME280;36409;52.168;20.878;2023-01-10T05:30:01;99890.72;;;5.14;84.23
50484;BME280;36409;52.168;20.878;2023-01-10T05:32:30;99896.77;;;5.15;84.64
50484;BME280;36409;52.168;20.878;2023-01-10T05:35:00;99904.53;;;5.16;84.48
50484;BME280;36409;52.168;20.878;2023-01-10T05:37:32;99915.75;;;5.18;84.60
50484;BME280;36409;52.168;20.878;2023-01-10T05:40:01;99918.33;;;5.20;84.66
50484;BME280;36409;52.168;20.878;2023-01-10T05:42:33;99921.80;;;5.20;85.03
50484;BME280;36409;52.168;20.878;2023-01-10T05:45:02;99924.37;;;5.22;84.47
50484;BME280;36409;52.168;20.878;2023-01-10T05:47:32;99928.70;;;5.21;84.64
50484;BME280;36409;52.168;20.878;2023-01-10T05:50:01;99939.90;;;5.22;84.75
50484;BME280;36409;52.168;20.878;2023-01-10T05:52:31;99938.17;;;5.19;84.46
50484;BME280;36409;52.168;20.878;2023-01-10T05:55:00;99947.64;;;5.19;84.15
50484;BME280;36409;52.168;20.878;2023-01-10T05:57:30;99947.64;;;5.19;84.65
50484;BME280;36409;52.168;20.878;2023-01-10T06:00:00;99955.41;;;5.19;84.60
50484;BME280;36409;52.168;20.878;2023-01-10T06:02:39;99957.14;;;5.20;84.20
50484;BME280;36409;52.168;20.878;2023-01-10T06:05:09;99964.05;;;5.21;84.50
50484;BME280;36409;52.168;20.878;2023-01-10T06:07:38;99969.22;;;5.21;84.24
50484;BME280;36409;52.168;20.878;2023-01-10T06:10:11;99972.66;;;5.20;84.49
50484;BME280;36409;52.168;20.878;2023-01-10T06:12:41;99976.13;;;5.20;84.64
50484;BME280;36409;52.168;20.878;2023-01-10T06:15:11;99973.55;;;5.20;84.64
50484;BME280;36409;52.168;20.878;2023-01-10T06:17:41;99980.42;;;5.20;84.63
50484;BME280;36409;52.168;20.878;2023-01-10T06:20:12;99987.35;;;5.18;84.67
50484;BME280;36409;52.168;20.878;2023-01-10T06:22:41;99991.64;;;5.17;84.61
50484;BME280;36409;52.168;20.878;2023-01-10T06:25:12;100000.29;;;5.18;84.44
50484;BME280;36409;52.168;20.878;2023-01-10T06:27:42;99994.23;;;5.17;84.51
50484;BME280;36409;52.168;20.878;2023-01-10T06:30:13;100005.45;;;5.15;84.13
50484;BME280;36409;52.168;20.878;2023-01-10T06:32:42;100005.45;;;5.15;84.23
50484;BME280;36409;52.168;20.878;2023-01-10T06:35:12;100010.63;;;5.15;84.16
50484;BME280;36409;52.168;20.878;2023-01-10T06:37:41;100019.23;;;5.10;84.29
50484;BME280;36409;52.168;20.878;2023-01-10T06:40:12;100020.09;;;5.09;84.51
50484;BME280;36409;52.168;20.878;2023-01-10T06:42:41;100022.67;;;5.08;84.16
50484;BME280;36409;52.168;20.878;2023-01-10T06:45:11;100027.86;;;5.06;84.37
50484;BME280;36409;52.168;20.878;2023-01-10T06:47:41;100026.97;;;5.07;84.18
50484;BME280;36409;52.168;20.878;2023-01-10T06:50:12;100029.56;;;5.06;84.26
50484;BME280;36409;52.168;20.878;2023-01-10T06:52:41;100039.92;;;5.04;84.36
50484;BME280;36409;52.168;20.878;2023-01-10T06:55:11;100048.54;;;5.03;84.41
50484;BME280;36409;52.168;20.878;2023-01-10T06:57:40;100043.36;;;5.03;84.18
50484;BME280;36409;52.168;20.878;2023-01-10T07:00:12;100046.80;;;5.02;84.10
50484;BME280;36409;52.168;20.878;2023-01-10T07:02:41;100051.98;;;5.02;84.40
50484;BME280;36409;52.168;20.878;2023-01-10T07:05:11;100051.98;;;5.01;84.31
50484;BME280;36409;52.168;20.878;2023-01-10T07:07:40;100061.45;;;5.00;84.06
50484;BME280;36409;52.168;20.878;2023-01-10T07:10:11;100063.19;;;5.00;84.38
50484;BME280;36409;52.168;20.878;2023-01-10T07:12:41;100060.58;;;4.98;84.59
50484;BME280;36409;52.168;20.878;2023-01-10T07:15:11;100058.00;;;4.97;84.36
50484;BME280;36409;52.168;20.878;2023-01-10T07:17:41;100055.42;;;4.95;84.53
50484;BME280;36409;52.168;20.878;2023-01-10T07:20:11;100058.00;;;4.95;84.40
50484;BME280;36409;52.168;20.878;2023-01-10T07:22:41;100061.45;;;4.94;84.14
50484;BME280;36409;52.168;20.878;2023-01-10T07:25:10;100066.59;;;4.92;84.46
50484;BME280;36409;52.168;20.878;2023-01-10T07:27:40;100063.13;;;4.89;84.35
50484;BME280;36409;52.168;20.878;2023-01-10T07:30:11;100073.48;;;4.87;84.17
50484;BME280;36409;52.168;20.878;2023-01-10T07:32:41;100081.22;;;4.86;84.10
50484;BME280;36409;52.168;20.878;2023-01-10T07:35:11;100084.66;;;4.85;84.03
50484;BME280;36409;52.168;20.878;2023-01-10T07:37:40;100075.20;;;4.84;83.96
50484;BME280;36409;52.168;20.878;2023-01-10T07:40:12;100072.61;;;4.84;84.29
50484;BME280;36409;52.168;20.878;2023-01-10T07:42:41;100079.49;;;4.82;84.09
50484;BME280;36409;52.168;20.878;2023-01-10T07:45:12;100088.11;;;4.81;84.34
50484;BME280;36409;52.168;20.878;2023-01-10T07:47:42;100093.27;;;4.82;84.42
50484;BME280;36409;52.168;20.878;2023-01-10T07:50:12;100092.39;;;4.80;84.21
50484;BME280;36409;52.168;20.878;2023-01-10T07:52:42;100088.08;;;4.77;84.22
50484;BME280;36409;52.168;20.878;2023-01-10T07:55:11;100094.98;;;4.77;84.22
50484;BME280;36409;52.168;20.878;2023-01-10T07:57:42;100090.67;;;4.76;84.39
50484;BME280;36409;52.168;20.878;2023-01-10T08:00:18;100098.42;;;4.77;84.24
50484;BME280;36409;52.168;20.878;2023-01-10T08:02:53;100100.16;;;4.78;84.42
50484;BME280;36409;52.168;20.878;2023-01-10T08:05:23;100104.48;;;4.78;84.32
50484;BME280;36409;52.168;20.878;2023-01-10T08:07:54;100111.36;;;4.77;84.32
50484;BME280;36409;52.168;20.878;2023-01-10T08:10:28;100111.36;;;4.76;84.38
50484;BME280;36409;52.168;20.878;2023-01-10T08:12:58;100118.27;;;4.77;84.06
50484;BME280;36409;52.168;20.878;2023-01-10T08:15:45;100117.36;;;4.73;84.20
50484;BME280;36409;52.168;20.878;2023-01-10T08:18:19;100126.00;;;4.72;84.25
50484;BME280;36409;52.168;20.878;2023-01-10T08:20:49;100131.14;;;4.71;84.14
50484;BME280;36409;52.168;20.878;2023-01-10T08:23:20;100131.17;;;4.72;84.35
50484;BME280;36409;52.168;20.878;2023-01-10T08:25:50;100134.58;;;4.70;84.00
50484;BME280;36409;52.168;20.878;2023-01-10T08:28:20;100132.88;;;4.70;84.17
50484;BME280;36409;52.168;20.878;2023-01-10T08:30:50;100140.60;;;4.67;84.19
50484;BME280;36409;52.168;20.878;2023-01-10T08:33:24;100136.28;;;4.66;84.09
50484;BME280;36409;52.168;20.878;2023-01-10T08:35:56;100143.19;;;4.66;84.33
50484;BME280;36409;52.168;20.878;2023-01-10T08:38:30;100145.78;;;4.66;84.16
50484;BME280;36409;52.168;20.878;2023-01-10T08:41:03;100139.75;;;4.67;83.79
50484;BME280;36409;52.168;20.878;2023-01-10T08:43:34;100141.45;;;4.66;84.06
50484;BME280;36409;52.168;20.878;2023-01-10T08:46:04;100150.06;;;4.63;84.10
50484;BME280;36409;52.168;20.878;2023-01-10T08:48:34;100154.36;;;4.61;84.29
50484;BME280;36409;52.168;20.878;2023-01-10T08:51:08;100157.80;;;4.60;84.19
50484;BME280;36409;52.168;20.878;2023-01-10T08:53:39;100170.72;;;4.59;84.05
50484;BME280;36409;52.168;20.878;2023-01-10T08:56:09;100175.04;;;4.60;83.91
50484;BME280;36409;52.168;20.878;2023-01-10T08:58:39;100179.33;;;4.59;83.82
50484;BME280;36409;52.168;20.878;2023-01-10T09:01:09;100187.97;;;4.60;84.47
50484;BME280;36409;52.168;20.878;2023-01-10T09:03:40;100188.81;;;4.59;84.44
50484;BME280;36409;52.168;20.878;2023-01-10T09:06:10;100189.70;;;4.61;84.05
50484;BME280;36409;52.168;20.878;2023-01-10T09:08:40;100187.12;;;4.61;83.82
50484;BME280;36409;52.168;20.878;2023-01-10T09:11:09;100193.98;;;4.60;84.27
50484;BME280;36409;52.168;20.878;2023-01-10T09:13:38;100194.88;;;4.62;83.81
50484;BME280;36409;52.168;20.878;2023-01-10T09:16:08;100193.98;;;4.62;84.13
50484;BME280;36409;52.168;20.878;2023-01-10T09:18:38;100206.06;;;4.63;83.52
50484;BME280;36409;52.168;20.878;2023-01-10T09:21:07;100207.83;;;4.66;84.45
50484;BME280;36409;52.168;20.878;2023-01-10T09:23:36;100211.27;;;4.68;84.22
50484;BME280;36409;52.168;20.878;2023-01-10T09:26:08;100207.02;;;4.71;84.03
50484;BME280;36409;52.168;20.878;2023-01-10T09:28:41;100201.80;;;4.70;83.84
50484;BME280;36409;52.168;20.878;2023-01-10T09:31:10;100193.20;;;4.71;84.11
50484;BME280;36409;52.168;20.878;2023-01-10T09:33:40;100200.98;;;4.74;83.85
50484;BME280;36409;52.168;20.878;2023-01-10T09:36:15;100201.87;;;4.76;84.09
50484;BME280;36409;52.168;20.878;2023-01-10T09:38:45;100201.02;;;4.77;83.93
50484;BME280;36409;52.168;20.878;2023-01-10T09:41:26;100204.48;;;4.81;83.98
50484;BME280;36409;52.168;20.878;2023-01-10T09:44:04;100212.23;;;4.82;84.02
50484;BME280;36409;52.168;20.878;2023-01-10T09:46:44;100208.80;;;4.83;83.80
50484;BME280;36409;52.168;20.878;2023-01-10T09:49:24;100204.52;;;4.85;84.17
50484;BME280;36409;52.168;20.878;2023-01-10T09:51:57;100195.05;;;4.89;84.21
50484;BME280;36409;52.168;20.878;2023-01-10T09:54:34;100195.92;;;4.91;83.91
50484;BME280;36409;52.168;20.878;2023-01-10T09:57:04;100193.37;;;4.94;84.07
50484;BME280;36409;52.168;20.878;2023-01-10T09:59:40;100195.09;;;4.97;84.12
50484;BME280;36409;52.168;20.878;2023-01-10T10:02:22;100190.80;;;5.00;84.15
50484;BME280;36409;52.168;20.878;2023-01-10T10:05:08;100197.70;;;5.03;84.21
50484;BME280;36409;52.168;20.878;2023-01-10T10:07:39;100196.88;;;5.05;84.21
50484;BME280;36409;52.168;20.878;2023-01-10T10:10:22;100198.61;;;5.08;83.54
50484;BME280;36409;52.168;20.878;2023-01-10T10:13:03;100205.52;;;5.10;83.97
50484;BME280;36409;52.168;20.878;2023-01-10T10:15:44;100204.66;;;5.13;83.80
50484;BME280;36409;52.168;20.878;2023-01-10T10:18:26;100211.59;;;5.17;84.01
50484;BME280;36409;52.168;20.878;2023-01-10T10:21:04;100207.30;;;5.18;83.67
50484;BME280;36409;52.168;20.878;2023-01-10T10:23:50;100217.66;;;5.18;83.66
50484;BME280;36409;52.168;20.878;2023-01-10T10:26:30;100213.33;;;5.17;83.62
50484;BME280;36409;52.168;20.878;2023-01-10T10:29:23;100216.77;;;5.19;83.76
50484;BME280;36409;52.168;20.878;2023-01-10T10:32:06;100213.35;;;5.23;83.74
50484;BME280;36409;52.168;20.878;2023-01-10T10:34:40;100220.28;;;5.29;83.91
50484;BME280;36409;52.168;20.878;2023-01-10T10:37:18;100222.03;;;5.36;83.92
50484;BME280;36409;52.168;20.878;2023-01-10T10:39:55;100223.78;;;5.41;83.78
50484;BME280;36409;52.168;20.878;2023-01-10T10:45:00;100220.36;;;5.46;83.74
50484;BME280;36409;52.168;20.878;2023-01-10T10:47:33;100228.13;;;5.46;83.78
50484;BME280;36409;52.168;20.878;2023-01-10T10:50:16;100228.98;;;5.46;83.75
50484;BME280;36409;52.168;20.878;2023-01-10T10:52:47;100237.63;;;5.45;83.61
50484;BME280;36409;52.168;20.878;2023-01-10T10:55:20;100237.61;;;5.44;84.06
50484;BME280;36409;52.168;20.878;2023-01-10T10:57:51;100243.66;;;5.44;83.40
50484;BME280;36409;52.168;20.878;2023-01-10T11:00:29;100240.22;;;5.45;83.91
50484;BME280;36409;52.168;20.878;2023-01-10T11:03:02;100233.31;;;5.44;83.66
50484;BME280;36409;52.168;20.878;2023-01-10T11:05:35;100234.16;;;5.45;83.68
50484;BME280;36409;52.168;20.878;2023-01-10T11:08:08;100236.75;;;5.45;83.70
50484;BME280;36409;52.168;20.878;2023-01-10T11:10:41;100240.22;;;5.45;83.39
50484;BME280;36409;52.168;20.878;2023-01-10T11:13:17;100243.66;;;5.46;84.05
50484;BME280;36409;52.168;20.878;2023-01-10T11:15:50;100241.07;;;5.47;83.59
50484;BME280;36409;52.168;20.878;2023-01-10T11:18:25;100247.99;;;5.45;83.38
50484;BME280;36409;52.168;20.878;2023-01-10T11:20:58;100256.58;;;5.43;83.33
50484;BME280;36409;52.168;20.878;2023-01-10T11:23:35;100263.47;;;5.39;83.32
50484;BME280;36409;52.168;20.878;2023-01-10T11:26:07;100269.50;;;5.38;83.37
50484;BME280;36409;52.168;20.878;2023-01-10T11:28:40;100270.36;;;5.37;83.54
50484;BME280;36409;52.168;20.878;2023-01-10T11:31:13;100279.86;;;5.38;83.11
50484;BME280;36409;52.168;20.878;2023-01-10T11:33:47;100280.74;;;5.38;83.31
50484;BME280;36409;52.168;20.878;2023-01-10T11:36:17;100285.01;;;5.35;83.25
50484;BME280;36409;52.168;20.878;2023-01-10T11:38:59;100291.08;;;5.34;83.37
50484;BME280;36409;52.168;20.878;2023-01-10T11:41:29;100293.66;;;5.34;83.47
50484;BME280;36409;52.168;20.878;2023-01-10T11:44:20;100298.84;;;5.34;83.15
50484;BME280;36409;52.168;20.878;2023-01-10T11:46:52;100295.37;;;5.33;83.19
50484;BME280;36409;52.168;20.878;2023-01-10T11:49:31;100301.40;;;5.31;83.42
50484;BME280;36409;52.168;20.878;2023-01-10T11:52:05;;;;5.31;
50484;BME280;36409;52.168;20.878;2023-01-10T11:54:40;100298.81;;;5.29;83.37
50484;BME280;36409;52.168;20.878;2023-01-10T11:57:17;100296.22;;;5.31;83.11
50484;BME280;36409;52.168;20.878;2023-01-10T11:59:52;100310.89;;;5.33;83.27
50484;BME280;36409;52.168;20.878;2023-01-10T12:02:28;100317.81;;;5.33;83.53
50484;BME280;36409;52.168;20.878;2023-01-10T12:05:00;100315.19;;;5.31;83.31
50484;BME280;36409;52.168;20.878;2023-01-10T12:07:55;100323.84;;;5.33;83.27
50484;BME280;36409;52.168;20.878;2023-01-10T12:10:26;100321.25;;;5.33;83.16
50484;BME280;36409;52.168;20.878;2023-01-10T12:12:58;100325.58;;;5.34;83.22
50484;BME280;36409;52.168;20.878;2023-01-10T12:15:29;100328.16;;;5.34;83.55
50484;BME280;36409;52.168;20.878;2023-01-10T12:18:02;100333.34;;;5.34;83.26
50484;BME280;36409;52.168;20.878;2023-01-10T12:20:44;100336.78;;;5.35;83.06
50484;BME280;36409;52.168;20.878;2023-01-10T12:23:18;100343.69;;;5.34;83.17
50484;BME280;36409;52.168;20.878;2023-01-10T12:25:50;100347.14;;;5.35;83.40
50484;BME280;36409;52.168;20.878;2023-01-10T12:28:41;100353.20;;;5.37;83.15
50484;BME280;36409;52.168;20.878;2023-01-10T12:31:13;100348.02;;;5.37;83.39
50484;BME280;36409;52.168;20.878;2023-01-10T12:33:46;100354.96;;;5.39;83.17
50484;BME280;36409;52.168;20.878;2023-01-10T12:36:27;100350.64;;;5.38;83.06
50484;BME280;36409;52.168;20.878;2023-01-10T12:39:10;100354.08;;;5.39;83.28
50484;BME280;36409;52.168;20.878;2023-01-10T12:41:52;100356.67;;;5.39;83.15
50484;BME280;36409;52.168;20.878;2023-01-10T12:44:42;100372.20;;;5.37;83.12
50484;BME280;36409;52.168;20.878;2023-01-10T12:47:27;100367.84;;;5.35;83.05
50484;BME280;36409;52.168;20.878;2023-01-10T12:50:04;100366.14;;;5.34;82.74
50484;BME280;36409;52.168;20.878;2023-01-10T12:52:40;100371.31;;;5.34;82.97
50484;BME280;36409;52.168;20.878;2023-01-10T12:55:15;100382.48;;;5.31;83.17
50484;BME280;36409;52.168;20.878;2023-01-10T12:57:47;100377.31;;;5.31;83.22
50484;BME280;36409;52.168;20.878;2023-01-10T13:00:28;100384.23;;;5.32;83.04
50484;BME280;36409;52.168;20.878;2023-01-10T13:03:12;100384.23;;;5.32;83.10
50484;BME280;36409;52.168;20.878;2023-01-10T13:05:43;100389.44;;;5.34;83.38
50484;BME280;36409;52.168;20.878;2023-01-10T13:08:22;100398.94;;;5.36;83.24
50484;BME280;36409;52.168;20.878;2023-01-10T13:10:56;100401.52;;;5.36;83.12
50484;BME280;36409;52.168;20.878;2023-01-10T13:13:32;100407.55;;;5.35;83.13
50484;BME280;36409;52.168;20.878;2023-01-10T13:16:21;100405.82;;;5.34;83.27
50484;BME280;36409;52.168;20.878;2023-01-10T13:19:23;100409.30;;;5.36;83.16
50484;BME280;36409;52.168;20.878;2023-01-10T13:22:17;100417.91;;;5.37;83.09
50484;BME280;36409;52.168;20.878;2023-01-10T13:24:58;100427.41;;;5.36;83.16
50484;BME280;36409;52.168;20.878;2023-01-10T13:27:32;100436.88;;;5.34;83.14
50484;BME280;36409;52.168;20.878;2023-01-10T13:30:03;100442.91;;;5.33;83.24
50484;BME280;36409;52.168;20.878;2023-01-10T13:32:35;100448.94;;;5.32;83.21
50484;BME280;36409;52.168;20.878;2023-01-10T13:35:12;100449.79;;;5.31;83.21